Time;durP1;ratioP1;P1;durP2;ratioP2;P2;SDS_P1;SDS_P2;PMS_P1;PMS_P2;Temp;Humidity;BMP_temperature;BMP_pressure;BME280_temperature;BME280_humidity;BME280_pressure;Samples;Min_cycle;Max_cycle;Signal;HPM_P1;HPM_P2
2022/05/28 00:02:11;;;;;;;;;;;;;;;24.39;28.95;98398.34;5094631;28;20279;-70
2022/05/28 00:04:36;;;;;;;;;;;;;;;24.39;29.01;98398.34;5094699;28;19959;-69
2022/05/28 00:07:03;;;;;;;;;;;;;;;24.40;29.07;98399.91;5094599;28;20313;-69
2022/05/28 00:09:28;;;;;;;;;;;;;;;24.39;29.00;98395.59;5094684;28;19916;-69
2022/05/28 00:11:53;;;;;;;;;;;;;;;24.38;28.96;98399.47;5094826;28;20259;-69
2022/05/28 00:14:19;;;;;;;;;;;;;;;24.37;29.05;98389.69;5094635;28;20351;-70
2022/05/28 00:16:46;;;;;;;;;;;;;;;24.37;28.68;98400.59;5094200;28;19912;-69
2022/05/28 00:19:11;;;;;;;;;;;;;;;24.38;28.78;98396.72;5094523;28;19916;-71
2022/05/28 00:21:36;;;;;;;;;;;;;;;24.38;28.98;98394.78;5094405;28;20271;-70
2022/05/28 00:24:01;;;;;;;;;;;;;;;24.38;28.78;98410.38;5094242;28;20329;-70
2022/05/28 00:26:27;;;;;;;;;;;;;;;24.39;28.80;98398.34;5094780;28;19916;-70
2022/05/28 00:28:52;;;;;;;;;;;;;;;24.38;28.96;98397.53;5094451;28;19938;-70
2022/05/28 00:31:17;;;;;;;;;;;;;;;24.39;28.95;98398.34;5094029;28;19971;-70
2022/05/28 00:33:43;;;;;;;;;;;;;;;24.38;29.02;98402.19;5094337;28;19970;-70
2022/05/28 00:36:09;;;;;;;;;;;;;;;24.37;28.92;98401.41;5094242;28;19967;-70
2022/05/28 00:38:34;;;;;;;;;;;;;;;24.37;29.04;98401.41;5094238;28;19924;-70
2022/05/28 00:41:00;;;;;;;;;;;;;;;24.37;29.03;98395.16;5094219;28;19923;-70
2022/05/28 00:43:26;;;;;;;;;;;;;;;24.37;28.99;98395.16;5094214;28;19916;-70
2022/05/28 00:45:53;;;;;;;;;;;;;;;24.37;28.87;98395.94;5076206;28;19923;-70
2022/05/28 00:48:20;;;;;;;;;;;;;;;24.37;29.09;98389.69;5094459;28;19916;-70
2022/05/28 00:50:45;;;;;;;;;;;;;;;24.37;28.87;98395.16;5076113;28;20069;-69
2022/05/28 00:53:11;;;;;;;;;;;;;;;24.37;28.92;98400.59;5094130;28;20385;-69
2022/05/28 00:55:36;;;;;;;;;;;;;;;24.36;28.84;98404.44;5093807;28;19939;-69
2022/05/28 00:58:03;;;;;;;;;;;;;;;24.36;28.79;98399.00;5093745;28;19916;-69
2022/05/28 01:00:28;;;;;;;;;;;;;;;24.35;28.92;98400.09;5093656;28;19920;-71
2022/05/28 01:03:08;;;;;;;;;;;;;;;24.35;29.15;98397.38;5093740;28;19916;-70
2022/05/28 01:05:34;;;;;;;;;;;;;;;24.34;28.90;98402.03;5075936;28;20098;-70
2022/05/28 01:08:06;;;;;;;;;;;;;;;24.35;29.00;98411.03;5075761;28;20019;-70
2022/05/28 01:10:38;;;;;;;;;;;;;;;24.34;29.02;98402.03;5075650;28;19922;-70
2022/05/28 01:13:07;;;;;;;;;;;;;;;24.36;28.77;98404.44;5094498;28;19916;-70
2022/05/28 01:15:33;;;;;;;;;;;;;;;24.36;28.93;98409.91;5075895;28;19916;-70
2022/05/28 01:18:09;;;;;;;;;;;;;;;24.35;28.98;98406.38;5093514;28;19916;-70
2022/05/28 01:20:35;;;;;;;;;;;;;;;24.36;29.04;98404.44;5093550;28;20424;-70
2022/05/28 01:23:10;;;;;;;;;;;;;;;24.35;28.92;98409.13;5075731;28;19924;-70
2022/05/28 01:25:35;;;;;;;;;;;;;;;24.34;28.76;98412.16;5093561;28;20367;-70
2022/05/28 01:28:01;;;;;;;;;;;;;;;24.32;29.10;98408.97;5095665;28;19927;-70
2022/05/28 01:30:26;;;;;;;;;;;;;;;24.33;29.04;98410.56;5079738;28;19952;-71
2022/05/28 01:32:52;;;;;;;;;;;;;;;24.34;29.03;98403.97;5097490;28;19916;-70
2022/05/28 01:35:18;;;;;;;;;;;;;;;24.34;29.00;98407.50;5079450;28;19942;-72
2022/05/28 01:37:44;;;;;;;;;;;;;;;24.34;28.71;98403.97;5097787;28;19952;-70
2022/05/28 01:40:09;;;;;;;;;;;;;;;24.33;28.75;98405.88;5097271;28;19920;-70
2022/05/28 01:42:35;;;;;;;;;;;;;;;24.34;28.92;98409.44;5079551;28;19916;-70
2022/05/28 01:45:01;;;;;;;;;;;;;;;24.34;28.91;98407.50;5079354;28;19920;-70
2022/05/28 01:47:26;;;;;;;;;;;;;;;24.34;28.83;98403.97;5079782;28;20427;-70
2022/05/28 01:49:52;;;;;;;;;;;;;;;24.34;28.83;98406.72;5079030;28;19916;-70
2022/05/28 01:52:17;;;;;;;;;;;;;;;24.35;28.92;98411.03;5097435;28;19920;-70
2022/05/28 01:54:43;;;;;;;;;;;;;;;24.32;28.86;98407.03;5078830;28;19963;-70
2022/05/28 01:57:09;;;;;;;;;;;;;;;24.32;28.67;98407.03;5081996;28;19917;-71
2022/05/28 01:59:34;;;;;;;;;;;;;;;24.32;28.64;98406.25;5058729;28;19966;-70
2022/05/28 02:02:00;;;;;;;;;;;;;;;24.34;28.91;98401.25;5058825;28;19923;-70
2022/05/28 02:04:26;;;;;;;;;;;;;;;24.33;28.89;98405.09;5077269;28;19999;-70
2022/05/28 02:06:51;;;;;;;;;;;;;;;24.33;28.86;98405.09;5076617;28;20007;-70
2022/05/28 02:09:17;;;;;;;;;;;;;;;24.34;28.69;98412.16;5076343;28;19956;-70
2022/05/28 02:12:01;;;;;;;;;;;;;;;24.33;28.83;98413.28;5058554;28;20335;-70
2022/05/28 02:14:31;;;;;;;;;;;;;;;24.33;28.72;98405.88;5076622;28;19921;-70
2022/05/28 02:17:09;;;;;;;;;;;;;;;24.32;29.00;98414.44;5076822;28;19923;-70
2022/05/28 02:19:44;;;;;;;;;;;;;;;24.32;28.84;98403.50;5076961;28;19977;-71
2022/05/28 02:22:17;;;;;;;;;;;;;;;24.31;29.01;98408.16;5076875;28;19988;-71
2022/05/28 02:24:46;;;;;;;;;;;;;;;24.31;28.87;98413.59;5086251;28;19928;-70
2022/05/28 02:27:12;;;;;;;;;;;;;;;24.31;29.03;98407.34;5078747;28;19923;-70
2022/05/28 02:29:38;;;;;;;;;;;;;;;24.30;28.88;98412.03;5079253;28;19939;-70
2022/05/28 02:32:17;;;;;;;;;;;;;;;24.31;28.98;98410.88;5097347;28;20367;-70
2022/05/28 02:34:45;;;;;;;;;;;;;;;24.31;28.91;98419.06;5079061;28;19916;-69
2022/05/28 02:37:11;;;;;;;;;;;;;;;24.32;28.98;98417.16;5097548;28;19958;-69
2022/05/28 02:39:36;;;;;;;;;;;;;;;24.32;29.03;98403.50;5095677;28;20366;-69
2022/05/28 02:42:01;;;;;;;;;;;;;;;24.32;29.13;98415.22;5098305;28;19916;-71
2022/05/28 02:44:28;;;;;;;;;;;;;;;24.31;28.98;98408.16;5100614;28;19916;-69
2022/05/28 02:46:53;;;;;;;;;;;;;;;24.31;29.25;98407.34;5096416;28;19955;-69
2022/05/28 02:49:18;;;;;;;;;;;;;;;24.33;29.18;98410.56;5096713;28;19956;-71
2022/05/28 02:51:44;;;;;;;;;;;;;;;24.32;29.24;98406.25;5096566;28;19962;-71
2022/05/28 02:54:09;;;;;;;;;;;;;;;24.31;29.10;98407.34;5096325;28;19920;-70
2022/05/28 02:56:34;;;;;;;;;;;;;;;24.29;29.05;98410.41;5096018;28;19916;-70
2022/05/28 02:58:59;;;;;;;;;;;;;;;24.31;28.92;98407.34;5095804;28;19923;-70
2022/05/28 03:01:25;;;;;;;;;;;;;;;24.31;29.19;98402.69;5078066;28;19920;-70
2022/05/28 03:03:51;;;;;;;;;;;;;;;24.32;29.08;98414.44;5095748;28;20264;-70
2022/05/28 03:06:16;;;;;;;;;;;;;;;24.32;29.26;98414.44;5096010;28;19920;-70
2022/05/28 03:08:41;;;;;;;;;;;;;;;24.31;28.98;98413.59;5078306;28;20296;-70
2022/05/28 03:11:07;;;;;;;;;;;;;;;24.30;29.14;98413.94;5095838;28;19995;-70
2022/05/28 03:13:32;;;;;;;;;;;;;;;24.31;29.07;98415.56;5095936;28;19966;-70
2022/05/28 03:15:57;;;;;;;;;;;;;;;24.31;29.13;98412.81;5095865;28;19930;-70
2022/05/28 03:18:22;;;;;;;;;;;;;;;24.32;29.13;98415.22;5095503;28;19916;-70
2022/05/28 03:20:48;;;;;;;;;;;;;;;24.31;29.21;98407.34;5096289;28;20010;-70
2022/05/28 03:23:13;;;;;;;;;;;;;;;24.30;29.24;98412.03;5095772;28;19916;-70
2022/05/28 03:25:38;;;;;;;;;;;;;;;24.30;29.12;98411.19;5077521;28;20278;-70
2022/05/28 03:28:04;;;;;;;;;;;;;;;24.31;29.32;98418.28;5075201;28;20037;-70
2022/05/28 03:30:29;;;;;;;;;;;;;;;24.30;29.25;98422.94;5075275;28;19917;-70
2022/05/28 03:32:54;;;;;;;;;;;;;;;24.30;29.32;98428.41;5075221;28;20023;-70
2022/05/28 03:35:19;;;;;;;;;;;;;;;24.31;29.34;98423.75;5057290;28;20397;-70
2022/05/28 03:37:45;;;;;;;;;;;;;;;24.31;29.31;98429.19;5074773;28;19940;-70
2022/05/28 03:40:10;;;;;;;;;;;;;;;24.31;29.27;98424.53;5075237;28;19947;-70
2022/05/28 03:42:35;;;;;;;;;;;;;;;24.31;29.20;98426.47;5075347;28;19921;-70
2022/05/28 03:45:00;;;;;;;;;;;;;;;24.30;29.18;98427.59;5074903;28;19916;-70
2022/05/28 03:47:26;;;;;;;;;;;;;;;24.31;29.57;98423.75;5075118;28;19967;-70
2022/05/28 03:49:51;;;;;;;;;;;;;;;24.31;29.57;98429.19;5074805;28;20371;-70
2022/05/28 03:52:16;;;;;;;;;;;;;;;24.31;29.75;98429.19;5057345;28;19917;-70
2022/05/28 03:54:44;;;;;;;;;;;;;;;24.28;29.59;98433.38;5075333;28;19923;-70
2022/05/28 03:57:20;;;;;;;;;;;;;;;24.29;29.33;98429.53;5074722;28;20015;-70
2022/05/28 03:59:45;;;;;;;;;;;;;;;24.29;29.54;98436.91;5057138;28;19923;-70
2022/05/28 04:02:11;;;;;;;;;;;;;;;24.30;29.74;98433.03;5074538;28;19917;-70
2022/05/28 04:04:37;;;;;;;;;;;;;;;24.27;29.48;98437.25;5075557;28;19961;-70
2022/05/28 04:07:02;;;;;;;;;;;;;;;24.27;29.82;98431.78;5057521;28;20266;-70
2022/05/28 04:09:27;;;;;;;;;;;;;;;24.28;29.75;98433.38;5076103;28;19924;-70
2022/05/28 04:11:52;;;;;;;;;;;;;;;24.28;29.86;98432.56;5075260;28;20410;-70
2022/05/28 04:14:18;;;;;;;;;;;;;;;24.29;29.59;98436.91;5077092;28;19916;-70
2022/05/28 04:16:43;;;;;;;;;;;;;;;24.28;29.75;98435.31;5059808;28;20461;-70
2022/05/28 04:19:09;;;;;;;;;;;;;;;24.28;29.65;98436.09;5074147;28;19920;-70
2022/05/28 04:21:35;;;;;;;;;;;;;;;24.26;29.82;98441.09;5074293;28;19919;-70
2022/05/28 04:24:00;;;;;;;;;;;;;;;24.30;29.67;98446.69;5077551;28;19920;-70
2022/05/28 04:26:26;;;;;;;;;;;;;;;24.29;29.78;98445.09;5094555;28;19927;-70
2022/05/28 04:28:51;;;;;;;;;;;;;;;24.29;29.96;98437.72;5094280;28;20310;-70
2022/05/28 04:31:18;;;;;;;;;;;;;;;24.28;29.86;98447.00;5094022;28;20484;-70
2022/05/28 04:33:43;;;;;;;;;;;;;;;24.30;29.87;98454.88;5094418;28;19916;-70
2022/05/28 04:36:08;;;;;;;;;;;;;;;24.30;30.05;98450.25;5094604;28;19982;-70
2022/05/28 04:38:34;;;;;;;;;;;;;;;24.30;29.88;98454.88;5093898;28;20006;-70
2022/05/28 04:41:00;;;;;;;;;;;;;;;24.28;30.04;98447.00;5093975;28;19962;-70
2022/05/28 04:43:25;;;;;;;;;;;;;;;24.28;30.06;98452.47;5093928;28;20286;-70
2022/05/28 04:45:50;;;;;;;;;;;;;;;24.28;29.93;98460.66;5094184;28;19916;-70
2022/05/28 04:48:15;;;;;;;;;;;;;;;24.29;30.14;98459.53;5094116;28;20290;-70
2022/05/28 04:50:41;;;;;;;;;;;;;;;24.30;30.15;98463.06;5094067;28;19916;-70
2022/05/28 04:53:06;;;;;;;;;;;;;;;24.25;30.37;98457.78;5094001;28;19966;-70
2022/05/28 04:55:31;;;;;;;;;;;;;;;24.30;30.18;98465.78;5094023;28;20274;-71
2022/05/28 04:57:56;;;;;;;;;;;;;;;24.29;30.12;98467.72;5093946;28;20000;-70
2022/05/28 05:00:22;;;;;;;;;;;;;;;24.29;30.15;98469.66;5094108;28;19951;-70
2022/05/28 05:02:48;;;;;;;;;;;;;;;24.29;30.26;98466.94;5092854;28;20282;-70
2022/05/28 05:05:13;;;;;;;;;;;;;;;24.29;30.12;98473.19;5094012;28;20011;-70
2022/05/28 05:07:38;;;;;;;;;;;;;;;24.29;30.28;98469.66;5093644;28;20007;-72
2022/05/28 05:10:04;;;;;;;;;;;;;;;24.29;30.01;98475.91;5093861;28;20058;-70
2022/05/28 05:12:29;;;;;;;;;;;;;;;24.30;29.80;98465.78;5094019;28;20244;-70
2022/05/28 05:14:54;;;;;;;;;;;;;;;24.31;30.05;98473.66;5093568;28;19943;-70
2022/05/28 05:17:19;;;;;;;;;;;;;;;24.30;30.33;98471.25;5093472;28;19974;-70
2022/05/28 05:19:45;;;;;;;;;;;;;;;24.30;30.32;98471.25;5093838;28;19916;-70
2022/05/28 05:22:10;;;;;;;;;;;;;;;24.30;30.09;98477.53;5093897;28;20285;-70
2022/05/28 05:24:35;;;;;;;;;;;;;;;24.30;30.33;98480.25;5093388;28;19978;-70
2022/05/28 05:27:01;;;;;;;;;;;;;;;24.29;30.12;98475.91;5093826;28;19921;-71
2022/05/28 05:29:26;;;;;;;;;;;;;;;24.30;30.27;98479.44;5093396;28;20363;-70
2022/05/28 05:31:51;;;;;;;;;;;;;;;24.31;30.01;98478.31;5093712;28;19962;-70
2022/05/28 05:34:17;;;;;;;;;;;;;;;24.28;30.20;98479.75;5093684;28;20385;-70
2022/05/28 05:36:42;;;;;;;;;;;;;;;24.28;30.06;98477.03;5093724;28;20057;-70
2022/05/28 05:39:07;;;;;;;;;;;;;;;24.30;30.18;98485.72;5093642;28;20418;-70
2022/05/28 05:41:37;;;;;;;;;;;;;;;24.31;30.00;98484.59;5094174;28;19967;-70
2022/05/28 05:44:02;;;;;;;;;;;;;;;24.32;30.12;98493.59;5093782;28;19916;-70
2022/05/28 05:46:27;;;;;;;;;;;;;;;24.30;30.08;98493.09;5093581;28;19924;-70
2022/05/28 05:48:52;;;;;;;;;;;;;;;24.32;30.02;98490.88;5093517;28;20416;-70
2022/05/28 05:51:18;;;;;;;;;;;;;;;24.28;30.12;98490.69;5093627;28;19916;-70
2022/05/28 05:53:43;;;;;;;;;;;;;;;24.30;29.91;98493.09;5093642;28;19916;-70
2022/05/28 05:56:08;;;;;;;;;;;;;;;24.30;29.91;98491.19;5093426;28;19921;-70
2022/05/28 05:58:34;;;;;;;;;;;;;;;24.31;29.91;98497.44;5093396;28;20370;-71
2022/05/28 06:00:59;;;;;;;;;;;;;;;24.31;29.92;98497.44;5093107;28;19916;-71
2022/05/28 06:03:28;;;;;;;;;;;;;;;24.31;29.93;98498.22;5093399;28;19916;-71
2022/05/28 06:05:57;;;;;;;;;;;;;;;24.31;29.82;98500.97;5093105;28;19923;-71
2022/05/28 06:08:22;;;;;;;;;;;;;;;24.30;29.58;98499.38;5093449;28;20383;-70
2022/05/28 06:10:47;;;;;;;;;;;;;;;24.31;29.67;98505.63;5093366;28;19924;-71
2022/05/28 06:13:12;;;;;;;;;;;;;;;24.32;29.66;98507.25;5093676;28;19942;-70
2022/05/28 06:15:38;;;;;;;;;;;;;;;24.30;29.58;98502.09;5097476;28;19979;-70
2022/05/28 06:18:03;;;;;;;;;;;;;;;24.30;29.39;98498.56;5096961;28;20351;-70
2022/05/28 06:20:30;;;;;;;;;;;;;;;24.30;29.61;98501.28;5096803;28;20029;-70
2022/05/28 06:22:55;;;;;;;;;;;;;;;24.28;29.58;98511.72;5096865;28;19951;-71
2022/05/28 06:25:20;;;;;;;;;;;;;;;24.31;29.20;98514.59;5096574;28;20435;-71
2022/05/28 06:27:46;;;;;;;;;;;;;;;24.31;29.39;98508.34;5096716;28;19920;-71
2022/05/28 06:30:12;;;;;;;;;;;;;;;24.30;29.45;98513.03;5096357;28;19926;-70
2022/05/28 06:32:37;;;;;;;;;;;;;;;24.30;29.46;98518.47;5096704;28;19920;-70
2022/05/28 06:35:02;;;;;;;;;;;;;;;24.31;29.14;98517.34;5096722;28;20483;-70
2022/05/28 06:37:28;;;;;;;;;;;;;;;24.30;29.24;98520.38;5096190;28;19916;-70
2022/05/28 06:39:53;;;;;;;;;;;;;;;24.28;29.26;98514.47;5096247;28;19920;-70
2022/05/28 06:42:18;;;;;;;;;;;;;;;24.30;29.47;98520.38;5096159;28;19970;-72
2022/05/28 06:44:43;;;;;;;;;;;;;;;24.31;29.25;98530.19;5078158;28;19920;-70
2022/05/28 06:47:08;;;;;;;;;;;;;;;24.28;29.33;98526.16;5096325;28;20282;-70
2022/05/28 06:49:34;;;;;;;;;;;;;;;24.30;29.10;98531.31;5096041;28;19995;-71
2022/05/28 06:51:59;;;;;;;;;;;;;;;24.30;29.24;98532.13;5096288;28;19923;-70
2022/05/28 06:54:24;;;;;;;;;;;;;;;24.30;29.22;98539.50;5096350;28;19916;-72
2022/05/28 06:56:49;;;;;;;;;;;;;;;24.29;29.26;98546.09;5095762;28;19916;-71
2022/05/28 06:59:15;;;;;;;;;;;;;;;24.30;29.01;98550.41;5095899;28;19916;-71
2022/05/28 07:01:40;;;;;;;;;;;;;;;24.30;28.98;98548.50;5096181;28;19998;-71
2022/05/28 07:04:05;;;;;;;;;;;;;;;24.31;28.90;98549.31;5096096;28;20005;-69
2022/05/28 07:06:32;;;;;;;;;;;;;;;24.31;29.05;98550.09;5095980;28;19923;-71
2022/05/28 07:08:57;;;;;;;;;;;;;;;24.31;29.18;98550.09;5096284;28;19967;-71
2022/05/28 07:11:22;;;;;;;;;;;;;;;24.32;28.88;98550.91;5095649;28;19927;-70
2022/05/28 07:13:48;;;;;;;;;;;;;;;24.31;29.03;98549.31;5095540;28;19962;-70
2022/05/28 07:16:13;;;;;;;;;;;;;;;24.31;28.98;98554.75;5095829;28;20004;-71
2022/05/28 07:18:38;;;;;;;;;;;;;;;24.31;29.10;98552.81;5095829;28;20282;-71
2022/05/28 07:21:04;;;;;;;;;;;;;;;24.31;29.00;98557.50;5095404;28;19916;-70
2022/05/28 07:23:29;;;;;;;;;;;;;;;24.30;29.04;98559.44;5095656;28;20062;-70
2022/05/28 07:26:02;;;;;;;;;;;;;;;24.30;29.14;98558.59;5094415;28;19931;-70
2022/05/28 07:28:33;;;;;;;;;;;;;;;24.30;29.05;98564.88;5095411;28;19920;-70
2022/05/28 07:30:58;;;;;;;;;;;;;;;24.30;29.00;98561.34;5095497;28;19950;-70
2022/05/28 07:33:27;;;;;;;;;;;;;;;24.28;29.23;98566.31;5095232;28;20310;-70
2022/05/28 07:35:52;;;;;;;;;;;;;;;24.30;28.99;98569.53;5095165;28;19916;-70
2022/05/28 07:38:18;;;;;;;;;;;;;;;24.31;28.79;98571.13;5094968;28;19924;-70
2022/05/28 07:40:43;;;;;;;;;;;;;;;24.30;28.79;98573.06;5095353;28;19922;-70
2022/05/28 07:43:08;;;;;;;;;;;;;;;24.30;28.97;98564.88;5094982;28;19927;-70
2022/05/28 07:45:37;;;;;;;;;;;;;;;24.31;28.90;98571.13;5094889;28;19999;-70
2022/05/28 07:48:03;;;;;;;;;;;;;;;24.32;28.83;98572.75;5095082;28;19923;-71
2022/05/28 07:50:28;;;;;;;;;;;;;;;24.32;28.90;98575.47;5094846;28;19917;-70
2022/05/28 07:52:53;;;;;;;;;;;;;;;24.31;28.60;98587.50;5095151;28;19916;-70
2022/05/28 07:55:18;;;;;;;;;;;;;;;24.30;28.57;98577.72;5095069;28;20408;-70
2022/05/28 07:57:43;;;;;;;;;;;;;;;24.30;28.53;98586.72;5094931;28;19994;-70
2022/05/28 08:00:09;;;;;;;;;;;;;;;24.30;28.50;98583.16;5076627;28;19924;-70
2022/05/28 08:02:34;;;;;;;;;;;;;;;24.31;28.58;98584.78;5094581;28;20346;-70
2022/05/28 08:04:59;;;;;;;;;;;;;;;24.30;28.32;98591.34;5094501;28;19970;-70
2022/05/28 08:07:25;;;;;;;;;;;;;;;24.30;28.63;98594.09;5094722;28;20015;-70
2022/05/28 08:09:50;;;;;;;;;;;;;;;24.30;28.55;98591.34;5094944;28;19920;-70
2022/05/28 08:12:15;;;;;;;;;;;;;;;24.29;28.61;98601.47;5094409;28;20382;-70
2022/05/28 08:14:40;;;;;;;;;;;;;;;24.28;28.72;98599.88;5094345;28;19916;-71
2022/05/28 08:17:06;;;;;;;;;;;;;;;24.29;28.72;98606.16;5094471;28;19920;-70
2022/05/28 08:19:31;;;;;;;;;;;;;;;24.29;28.47;98606.16;5094652;28;19927;-71
2022/05/28 08:24:40;;;;;;;;;;;;;;;24.30;28.68;98614.03;5094420;28;19927;-71
2022/05/28 08:27:06;;;;;;;;;;;;;;;24.29;28.55;98617.88;5094604;28;19939;-70
2022/05/28 08:29:31;;;;;;;;;;;;;;;24.27;28.45;98619.31;5094532;28;19916;-71
2022/05/28 08:31:56;;;;;;;;;;;;;;;24.28;28.40;98620.91;5094266;28;19955;-70
2022/05/28 08:34:21;;;;;;;;;;;;;;;24.28;28.44;98631.81;5094461;28;19920;-70
2022/05/28 08:36:46;;;;;;;;;;;;;;;24.29;28.55;98623.31;5076211;28;19926;-70
2022/05/28 08:39:12;;;;;;;;;;;;;;;24.28;28.60;98632.63;5094406;28;20339;-71
2022/05/28 08:41:40;;;;;;;;;;;;;;;24.28;28.66;98631.81;5094275;28;20018;-70
2022/05/28 08:44:08;;;;;;;;;;;;;;;24.27;28.59;98633.75;5075940;28;19917;-70
2022/05/28 08:46:34;;;;;;;;;;;;;;;24.29;28.84;98638.91;5094379;28;19920;-70
2022/05/28 08:48:59;;;;;;;;;;;;;;;24.28;28.56;98640.00;5094341;28;20415;-70
2022/05/28 08:51:24;;;;;;;;;;;;;;;24.28;28.68;98638.09;5094310;28;20231;-70
2022/05/28 08:54:01;;;;;;;;;;;;;;;24.30;28.65;98645.94;5093820;28;19923;-70
2022/05/28 08:56:26;;;;;;;;;;;;;;;24.29;28.65;98647.09;5094014;28;19931;-71
2022/05/28 08:58:57;;;;;;;;;;;;;;;24.30;28.90;98651.41;5076133;28;19916;-70
2022/05/28 09:01:23;;;;;;;;;;;;;;;24.27;28.98;98652.88;5094409;28;19916;-70
2022/05/28 09:03:54;;;;;;;;;;;;;;;24.26;28.87;98656.72;5076835;28;20354;-70
2022/05/28 09:06:21;;;;;;;;;;;;;;;24.27;29.00;98652.06;5076248;28;20358;-69
2022/05/28 09:08:49;;;;;;;;;;;;;;;24.27;29.05;98657.53;5094418;28;19957;-70
2022/05/28 09:11:15;;;;;;;;;;;;;;;24.27;29.11;98661.06;5093956;28;19920;-69
2022/05/28 09:13:47;;;;;;;;;;;;;;;24.27;29.15;98658.31;5093571;28;20421;-69
2022/05/28 09:16:19;;;;;;;;;;;;;;;24.27;29.30;98658.31;5093949;28;19962;-69
2022/05/28 09:18:45;;;;;;;;;;;;;;;24.27;29.30;98666.53;5075802;28;20028;-71
2022/05/28 09:21:11;;;;;;;;;;;;;;;24.28;29.09;98670.03;5093847;28;20343;-70
2022/05/28 09:23:59;;;;;;;;;;;;;;;24.27;29.32;98665.72;5075736;28;20293;-70
2022/05/28 09:26:29;;;;;;;;;;;;;;;24.28;29.16;98680.97;5090396;28;20286;-70
2022/05/28 09:29:00;;;;;;;;;;;;;;;24.28;29.45;98679.03;5100907;28;19970;-70
2022/05/28 09:31:25;;;;;;;;;;;;;;;24.27;29.08;98685.63;5094088;28;20286;-70
2022/05/28 09:33:54;;;;;;;;;;;;;;;24.25;29.40;98682.41;5093627;28;19916;-70
2022/05/28 09:36:40;;;;;;;;;;;;;;;24.26;29.29;98688.66;5075977;28;19916;-70
2022/05/28 09:39:11;;;;;;;;;;;;;;;24.26;29.36;98683.22;5093840;28;19916;-70
2022/05/28 09:41:40;;;;;;;;;;;;;;;24.25;29.12;98693.34;5093519;28;19919;-70
2022/05/28 09:44:20;;;;;;;;;;;;;;;24.25;29.47;98687.06;5093663;28;20030;-70
2022/05/28 09:46:45;;;;;;;;;;;;;;;24.25;29.44;98692.50;5093338;28;20354;-70
2022/05/28 09:49:12;;;;;;;;;;;;;;;24.25;29.54;98693.34;5095373;28;20003;-70
2022/05/28 09:51:37;;;;;;;;;;;;;;;24.27;29.50;98698.47;5097399;28;19982;-69
2022/05/28 09:54:17;;;;;;;;;;;;;;;24.27;29.58;98695.75;5097411;28;20319;-69
2022/05/28 09:57:09;;;;;;;;;;;;;;;24.26;29.47;98699.59;5097397;28;19916;-69
2022/05/28 09:59:35;;;;;;;;;;;;;;;24.26;29.48;98699.59;5097293;28;19916;-69
2022/05/28 10:02:17;;;;;;;;;;;;;;;24.27;29.53;98710.19;5097031;28;19923;-69
2022/05/28 10:05:01;;;;;;;;;;;;;;;24.25;29.48;98706.97;5078897;28;19916;-69
2022/05/28 10:07:30;;;;;;;;;;;;;;;24.26;29.51;98702.31;5097440;28;19920;-69
2022/05/28 10:09:55;;;;;;;;;;;;;;;24.25;29.49;98704.25;5099592;28;19920;-69
2022/05/28 10:12:24;;;;;;;;;;;;;;;24.24;29.35;98701.84;5098952;28;19916;-69
2022/05/28 10:14:57;;;;;;;;;;;;;;;24.24;29.26;98710.81;5098877;28;20385;-69
2022/05/28 10:17:22;;;;;;;;;;;;;;;24.25;29.19;98711.63;5098594;28;19916;-69
2022/05/28 10:19:47;;;;;;;;;;;;;;;24.25;29.02;98712.44;5099085;28;19916;-69
2022/05/28 10:22:16;;;;;;;;;;;;;;;24.26;28.78;98718.69;5097417;28;19924;-69
2022/05/28 10:24:47;;;;;;;;;;;;;;;24.27;29.22;98714.84;5096370;28;19924;-69
2022/05/28 10:27:23;;;;;;;;;;;;;;;24.27;28.91;98720.31;5078279;28;19923;-69
2022/05/28 10:29:49;;;;;;;;;;;;;;;24.25;28.80;98714.34;5078409;28;19916;-69
2022/05/28 10:32:17;;;;;;;;;;;;;;;24.25;29.09;98717.91;5078595;28;19916;-69
2022/05/28 10:34:42;;;;;;;;;;;;;;;24.25;28.77;98714.34;5096472;28;19916;-69
2022/05/28 10:37:11;;;;;;;;;;;;;;;24.24;28.82;98719.00;5096546;28;19923;-69
2022/05/28 10:39:37;;;;;;;;;;;;;;;24.26;29.17;98721.44;5096517;28;19970;-69
2022/05/28 10:42:03;;;;;;;;;;;;;;;24.25;29.03;98720.63;5096227;28;19916;-70
2022/05/28 10:44:28;;;;;;;;;;;;;;;24.26;29.07;98715.97;5096026;28;20015;-75
2022/05/28 10:47:13;;;;;;;;;;;;;;;24.27;29.02;98723.84;5096530;28;19962;-75
2022/05/28 10:49:57;;;;;;;;;;;;;;;24.28;28.94;98722.69;5077950;28;20382;-75
2022/05/28 10:52:44;;;;;;;;;;;;;;;24.28;28.95;98713.72;5096345;28;20020;-76
2022/05/28 10:55:11;;;;;;;;;;;;;;;24.28;29.07;98722.69;5077943;28;19927;-76
2022/05/28 10:57:36;;;;;;;;;;;;;;;24.30;29.08;98723.22;5077826;28;19922;-76
2022/05/28 11:00:02;;;;;;;;;;;;;;;24.32;29.07;98725.63;5094824;28;19916;-76
2022/05/28 11:02:38;;;;;;;;;;;;;;;24.33;28.98;98727.22;5095901;28;19962;-76
2022/05/28 11:05:22;;;;;;;;;;;;;;;24.32;28.80;98720.16;5078109;28;19977;-76
2022/05/28 11:07:52;;;;;;;;;;;;;;;24.34;28.72;98726.09;5095853;28;20005;-76
2022/05/28 11:10:38;;;;;;;;;;;;;;;24.34;28.59;98721.44;5096129;28;19935;-76
2022/05/28 11:13:06;;;;;;;;;;;;;;;24.33;28.60;98728.00;5078008;28;19921;-75
2022/05/28 11:15:36;;;;;;;;;;;;;;;24.35;28.72;98722.22;5095730;28;20380;-75
2022/05/28 11:18:17;;;;;;;;;;;;;;;24.35;28.68;98731.25;5095968;28;19916;-75
2022/05/28 11:20:42;;;;;;;;;;;;;;;24.36;28.78;98726.56;5095568;28;19924;-72
2022/05/28 11:23:08;;;;;;;;;;;;;;;24.36;28.56;98732.84;5095697;28;19916;-72
2022/05/28 11:25:35;;;;;;;;;;;;;;;24.36;28.45;98726.56;5095312;28;19924;-72
2022/05/28 11:28:00;;;;;;;;;;;;;;;24.37;28.50;98729.00;5095615;28;19974;-72
2022/05/28 11:30:25;;;;;;;;;;;;;;;24.37;28.44;98728.19;5096426;28;19920;-72
2022/05/28 11:33:02;;;;;;;;;;;;;;;24.35;28.35;98725.78;5095272;28;19939;-72
2022/05/28 11:35:47;;;;;;;;;;;;;;;24.34;28.23;98718.69;5077027;28;19977;-72
2022/05/28 11:38:31;;;;;;;;;;;;;;;24.36;28.33;98721.13;5094483;28;19916;-72
2022/05/28 11:41:03;;;;;;;;;;;;;;;24.35;28.21;98722.22;5095125;28;19982;-72
2022/05/28 11:43:30;;;;;;;;;;;;;;;24.35;28.22;98725.78;5077484;28;19966;-72
2022/05/28 11:46:04;;;;;;;;;;;;;;;24.33;28.18;98729.94;5095289;28;19916;-72
2022/05/28 11:51:27;;;;;;;;;;;;;;;24.34;28.42;98728.84;5076990;28;19916;-72
2022/05/28 11:51:30;;;;;;;;;;;;;;;24.37;28.20;98733.66;5095344;28;19955;-72
2022/05/28 11:53:56;;;;;;;;;;;;;;;24.36;27.87;98735.56;5095172;28;19920;-72
2022/05/28 11:56:24;;;;;;;;;;;;;;;24.34;27.98;98735.09;5095066;28;20323;-72
2022/05/28 11:58:52;;;;;;;;;;;;;;;24.36;28.08;98746.47;5095006;28;19995;-72
2022/05/28 12:01:18;;;;;;;;;;;;;;;24.39;27.71;98747.78;5095091;28;19973;-72
2022/05/28 12:03:44;;;;;;;;;;;;;;;24.40;27.97;98752.09;5076657;28;19923;-72
2022/05/28 12:06:14;;;;;;;;;;;;;;;24.41;27.93;98756.47;5076539;28;19921;-73
2022/05/28 12:08:42;;;;;;;;;;;;;;;24.39;27.96;98747.78;5094678;28;19943;-71
2022/05/28 12:11:19;;;;;;;;;;;;;;;24.40;27.92;98754.84;5094565;28;20296;-70
2022/05/28 12:13:49;;;;;;;;;;;;;;;24.40;27.86;98760.28;5094484;28;20365;-70
2022/05/28 12:16:17;;;;;;;;;;;;;;;24.44;27.79;98761.28;5094383;28;19923;-71
2022/05/28 12:18:52;;;;;;;;;;;;;;;24.46;27.65;98758.25;5094314;28;20331;-70
2022/05/28 12:21:23;;;;;;;;;;;;;;;24.41;27.47;98759.19;5076432;28;19916;-70
2022/05/28 12:23:48;;;;;;;;;;;;;;;24.42;27.46;98762.72;5094353;28;20336;-70
2022/05/28 12:26:42;;;;;;;;;;;;;;;24.40;27.61;98763.03;5094814;28;19922;-70
2022/05/28 12:29:04;;;;;;;;;;;;;;;24.41;27.39;98767.38;5094335;28;19967;-70
2022/05/28 12:31:29;;;;;;;;;;;;;;;24.37;27.43;98771.88;5076182;28;19920;-70
2022/05/28 12:33:55;;;;;;;;;;;;;;;24.39;27.47;98775.09;5076342;28;19916;-70
2022/05/28 12:36:40;;;;;;;;;;;;;;;24.37;27.30;98778.13;5094398;28;19916;-70
2022/05/28 12:39:12;;;;;;;;;;;;;;;24.36;27.41;98781.97;5075955;28;19923;-70
2022/05/28 12:41:37;;;;;;;;;;;;;;;24.37;27.18;98777.34;5093996;28;20024;-70
2022/05/28 12:44:23;;;;;;;;;;;;;;;24.35;27.08;98783.13;5093930;28;19947;-70
2022/05/28 12:46:54;;;;;;;;;;;;;;;24.35;27.35;98779.56;5094006;28;19916;-70
2022/05/28 12:49:26;;;;;;;;;;;;;;;24.36;27.22;98783.91;5076583;28;19916;-70
2022/05/28 12:51:51;;;;;;;;;;;;;;;24.37;26.95;98782.81;5094186;28;19916;-69
2022/05/28 12:54:26;;;;;;;;;;;;;;;24.38;27.21;98789.84;5094070;28;19989;-69